Carmel, NY

11:27 PM EDT on October 01, 2014 (GMT -0400)
Westchester County | Change Station
CLOSE
Current Station
Airport
Location: White Plains,
Elevation: 436 ft
Nearby Weather Stations

Elev 436 ft 41.06 °N, 73.70 °W | Updated 31 minutes ago

Overcast
Overcast
59 °F
Feels Like 59 °F
N
6
Wind Variable Wind from North

Today
High -- | Low -- °F
--% Chance of Precip.
Yesterday
High -- | Low -- °F
Precip. -- in
6:51 AM 6:36 PM
First Quarter, 54% visible
Pressure 30.08 in
Visibility 6.0 miles
Clouds Mostly Cloudy 1700 ft
Overcast 2500 ft
Dew Point 56 °F
Humidity 90%
Rainfall 0.08 in
Snow Depth Not available.
UV 0 out of 12
Pollen .40 out of 12
PM2.5 Good
Flu Activity Not available.
METAR KHPN 020256Z 36005KT 6SM -RA BR BKN017 OVC025 15/13 A3008 RMK AO2 RAB27 SLP185 P0001 60001 T01500133 53004

More Conditions Fewer Conditions

Pressure 30.08 in
Visibility 6.0 miles
Clouds Mostly Cloudy 1700 ft
Overcast 2500 ft
Dew Point 56 °F
Humidity 90%
Rainfall 0.08 in
Snow Depth Not available.
UV 0 out of 12
Pollen .40 out of 12
PM2.5 Good
Flu Activity Not available.
METAR KHPN 020256Z 36005KT 6SM -RA BR BKN017 OVC025 15/13 A3008 RMK AO2 RAB27 SLP185 P0001 60001 T01500133 53004

More Conditions Fewer Conditions

10-Day Weather Forecast

Almanac

Astronomy

Oct. 01, 2014 Rise Set
Actual Time 6:51 AM EDT 6:36 PM EDT
Civil Twilight 6:24 AM EDT 7:04 PM EDT
Nautical Twilight 5:51 AM EDT 7:36 PM EDT
Astronomical Twilight 5:19 AM EDT 8:08 PM EDT
Moon 1:53 PM EDT (10/1) No Moon Set
Length of Visible Light 12h 40m
Length of Day
11h 45m
Tomorrow will be 2m 44s shorter.
First Quarter, 54% of the Moon is Illuminated
Today
First Quarter
Oct 8
Full
Oct 15
Last Quarter
Oct 23
New
Oct 30
First Quarter

Today's Extremes

State Highs State Lows

Community

WunderPhotos

Upload Photos

1,758,161 photos uploaded!

WunderBlogs® & News

Nearby

Air Quality

  Air Quality AQ Index Pollutant
Yesterday Good
PM2.5
Yesterday Good
OZONE
Current Good
PM2.5
Wednesday Good
PM2.5
Thursday Good
PM2.5

Snow Depth

Station Depth Elevation
No new snow has been reported.

Earthquake Activity

City Distance Mag. Time & Date
No recent earthquake activity has been reported nearby.
Minimum magnitude displayed is 2.5.

Coastal Water Temperatures

Place Temperature
Kings Point, NY 66.9 °F
Bridgeport, CT 68.0 °F

Nearby Weather Stations